Terminal Aerodrome Forecast
Issued by NWS Grand Forks, ND

Home | Current Version | Previous Version | Text Only | Print | Product List | Glossary On
Versions: 1 2 3 4 5 6 7 8 9 10 11 12 13 14 15 16 17
550
FTUS43 KFGF 260520
TAFFAR
TAF
KFAR 260520Z 2606/2706 28011KT P6SM OVC080
     FM260700 28014KT P6SM SCT150
     FM261600 31022G30KT P6SM SKC
     FM270100 32011KT P6SM SKC=

USA.gov is the U.S. government's official web portal to all federal, state and local government web resources and services.